sensor_id;sensor_type;location;lat;lon;timestamp;temperature;humidity
81895;DHT22;71358;45.642;13.758;2023-07-31T00:01:31;27.80;62.60
81895;DHT22;71358;45.642;13.758;2023-07-31T00:04:16;27.80;62.50
81895;DHT22;71358;45.642;13.758;2023-07-31T00:07:01;27.80;62.50
81895;DHT22;71358;45.642;13.758;2023-07-31T00:09:48;27.80;62.50
81895;DHT22;71358;45.642;13.758;2023-07-31T00:12:32;27.80;62.50
81895;DHT22;71358;45.642;13.758;2023-07-31T00:15:17;27.80;62.40
81895;DHT22;71358;45.642;13.758;2023-07-31T00:18:02;27.80;62.50
81895;DHT22;71358;45.642;13.758;2023-07-31T00:20:46;27.80;62.40
81895;DHT22;71358;45.642;13.758;2023-07-31T00:23:31;27.80;62.40
81895;DHT22;71358;45.642;13.758;2023-07-31T00:26:16;27.80;62.40
81895;DHT22;71358;45.642;13.758;2023-07-31T00:29:00;27.80;62.20
81895;DHT22;71358;45.642;13.758;2023-07-31T00:31:45;27.80;62.20
81895;DHT22;71358;45.642;13.758;2023-07-31T00:34:29;27.80;62.20
81895;DHT22;71358;45.642;13.758;2023-07-31T00:37:14;27.80;62.10
81895;DHT22;71358;45.642;13.758;2023-07-31T00:40:00;27.80;62.10
81895;DHT22;71358;45.642;13.758;2023-07-31T00:42:45;27.80;62.10
81895;DHT22;71358;45.642;13.758;2023-07-31T00:45:30;27.80;62.10
81895;DHT22;71358;45.642;13.758;2023-07-31T00:48:14;27.80;62.10
81895;DHT22;71358;45.642;13.758;2023-07-31T00:50:59;27.80;62.10
81895;DHT22;71358;45.642;13.758;2023-07-31T00:53:45;27.80;62.10
81895;DHT22;71358;45.642;13.758;2023-07-31T00:56:30;27.80;62.10
81895;DHT22;71358;45.642;13.758;2023-07-31T00:59:15;27.80;62.00
81895;DHT22;71358;45.642;13.758;2023-07-31T01:02:00;27.80;61.90
81895;DHT22;71358;45.642;13.758;2023-07-31T01:04:45;27.80;61.90
81895;DHT22;71358;45.642;13.758;2023-07-31T01:07:59;27.80;61.90
81895;DHT22;71358;45.642;13.758;2023-07-31T01:10:56;27.80;61.90
81895;DHT22;71358;45.642;13.758;2023-07-31T01:13:42;27.80;61.90
81895;DHT22;71358;45.642;13.758;2023-07-31T01:16:26;27.80;61.90
81895;DHT22;71358;45.642;13.758;2023-07-31T01:19:12;27.80;61.80
81895;DHT22;71358;45.642;13.758;2023-07-31T01:28:09;27.80;61.80
81895;DHT22;71358;45.642;13.758;2023-07-31T01:30:55;27.80;61.80
81895;DHT22;71358;45.642;13.758;2023-07-31T01:33:43;27.80;61.80
81895;DHT22;71358;45.642;13.758;2023-07-31T01:36:28;27.80;61.80
81895;DHT22;71358;45.642;13.758;2023-07-31T01:39:14;27.80;61.80
81895;DHT22;71358;45.642;13.758;2023-07-31T01:41:59;27.80;61.80
81895;DHT22;71358;45.642;13.758;2023-07-31T01:44:44;27.80;61.70
81895;DHT22;71358;45.642;13.758;2023-07-31T01:47:28;27.80;61.70
81895;DHT22;71358;45.642;13.758;2023-07-31T01:50:13;27.80;61.70
81895;DHT22;71358;45.642;13.758;2023-07-31T01:52:57;27.80;61.70
81895;DHT22;71358;45.642;13.758;2023-07-31T01:55:42;27.80;61.70
81895;DHT22;71358;45.642;13.758;2023-07-31T01:58:27;27.80;61.40
81895;DHT22;71358;45.642;13.758;2023-07-31T02:01:11;27.80;61.30
81895;DHT22;71358;45.642;13.758;2023-07-31T02:03:56;27.80;61.20
81895;DHT22;71358;45.642;13.758;2023-07-31T02:06:41;27.80;61.20
81895;DHT22;71358;45.642;13.758;2023-07-31T02:09:26;27.80;61.20
81895;DHT22;71358;45.642;13.758;2023-07-31T02:12:10;27.80;61.20
81895;DHT22;71358;45.642;13.758;2023-07-31T02:14:55;27.80;61.10
81895;DHT22;71358;45.642;13.758;2023-07-31T02:17:40;27.80;61.10
81895;DHT22;71358;45.642;13.758;2023-07-31T02:20:24;27.80;61.10
81895;DHT22;71358;45.642;13.758;2023-07-31T02:23:09;27.80;61.10
81895;DHT22;71358;45.642;13.758;2023-07-31T02:25:54;27.80;61.10
81895;DHT22;71358;45.642;13.758;2023-07-31T02:28:38;27.80;61.10
81895;DHT22;71358;45.642;13.758;2023-07-31T02:31:23;27.80;61.20
81895;DHT22;71358;45.642;13.758;2023-07-31T02:34:07;27.80;61.10
81895;DHT22;71358;45.642;13.758;2023-07-31T02:36:52;27.80;61.10
81895;DHT22;71358;45.642;13.758;2023-07-31T02:39:36;27.80;61.10
81895;DHT22;71358;45.642;13.758;2023-07-31T02:42:21;27.80;61.10
81895;DHT22;71358;45.642;13.758;2023-07-31T02:45:06;27.80;61.10
81895;DHT22;71358;45.642;13.758;2023-07-31T02:47:51;27.80;61.10
81895;DHT22;71358;45.642;13.758;2023-07-31T02:50:35;27.80;61.00
81895;DHT22;71358;45.642;13.758;2023-07-31T02:53:20;27.80;61.10
81895;DHT22;71358;45.642;13.758;2023-07-31T02:56:04;27.80;61.10
81895;DHT22;71358;45.642;13.758;2023-07-31T02:58:49;27.80;61.00
81895;DHT22;71358;45.642;13.758;2023-07-31T03:01:33;27.80;61.00
81895;DHT22;71358;45.642;13.758;2023-07-31T03:04:18;27.80;61.00
81895;DHT22;71358;45.642;13.758;2023-07-31T03:07:02;27.80;61.00
81895;DHT22;71358;45.642;13.758;2023-07-31T03:09:47;27.80;60.90
81895;DHT22;71358;45.642;13.758;2023-07-31T03:12:33;27.80;60.90
81895;DHT22;71358;45.642;13.758;2023-07-31T03:15:17;27.80;60.80
81895;DHT22;71358;45.642;13.758;2023-07-31T03:18:02;27.80;60.80
81895;DHT22;71358;45.642;13.758;2023-07-31T03:20:46;27.80;60.80
81895;DHT22;71358;45.642;13.758;2023-07-31T03:23:31;27.80;60.80
81895;DHT22;71358;45.642;13.758;2023-07-31T03:26:15;27.80;60.70
81895;DHT22;71358;45.642;13.758;2023-07-31T03:29:00;27.80;60.60
81895;DHT22;71358;45.642;13.758;2023-07-31T03:31:45;27.80;60.60
81895;DHT22;71358;45.642;13.758;2023-07-31T03:34:29;27.80;60.50
81895;DHT22;71358;45.642;13.758;2023-07-31T03:37:16;27.70;60.50
81895;DHT22;71358;45.642;13.758;2023-07-31T03:40:00;27.70;60.40
81895;DHT22;71358;45.642;13.758;2023-07-31T03:42:45;27.80;60.40
81895;DHT22;71358;45.642;13.758;2023-07-31T03:45:29;27.80;60.40
81895;DHT22;71358;45.642;13.758;2023-07-31T03:48:15;27.80;60.30
81895;DHT22;71358;45.642;13.758;2023-07-31T03:51:00;27.80;60.30
81895;DHT22;71358;45.642;13.758;2023-07-31T03:53:45;27.80;60.30
81895;DHT22;71358;45.642;13.758;2023-07-31T03:56:29;27.70;60.20
81895;DHT22;71358;45.642;13.758;2023-07-31T03:59:14;27.80;60.20
81895;DHT22;71358;45.642;13.758;2023-07-31T04:01:59;27.70;60.00
81895;DHT22;71358;45.642;13.758;2023-07-31T04:04:43;27.70;60.00
81895;DHT22;71358;45.642;13.758;2023-07-31T04:07:28;27.70;60.00
81895;DHT22;71358;45.642;13.758;2023-07-31T04:10:12;27.70;59.90
81895;DHT22;71358;45.642;13.758;2023-07-31T04:12:57;27.70;59.80
81895;DHT22;71358;45.642;13.758;2023-07-31T04:15:41;27.70;59.80
81895;DHT22;71358;45.642;13.758;2023-07-31T04:18:26;27.70;59.80
81895;DHT22;71358;45.642;13.758;2023-07-31T04:21:12;27.70;59.70
81895;DHT22;71358;45.642;13.758;2023-07-31T04:23:57;27.70;59.80
81895;DHT22;71358;45.642;13.758;2023-07-31T04:26:42;27.70;59.80
81895;DHT22;71358;45.642;13.758;2023-07-31T04:29:27;27.70;59.80
81895;DHT22;71358;45.642;13.758;2023-07-31T04:32:13;27.70;59.80
81895;DHT22;71358;45.642;13.758;2023-07-31T04:34:57;27.70;59.80
81895;DHT22;71358;45.642;13.758;2023-07-31T04:37:42;27.70;59.60
81895;DHT22;71358;45.642;13.758;2023-07-31T04:40:26;27.70;59.60
81895;DHT22;71358;45.642;13.758;2023-07-31T04:43:11;27.70;59.50
81895;DHT22;71358;45.642;13.758;2023-07-31T04:45:55;27.80;59.80
81895;DHT22;71358;45.642;13.758;2023-07-31T04:48:40;27.80;59.40
81895;DHT22;71358;45.642;13.758;2023-07-31T04:51:25;27.90;59.20
81895;DHT22;71358;45.642;13.758;2023-07-31T04:54:09;28.00;59.10
81895;DHT22;71358;45.642;13.758;2023-07-31T04:56:56;28.10;58.60
81895;DHT22;71358;45.642;13.758;2023-07-31T04:59:41;28.10;58.30
81895;DHT22;71358;45.642;13.758;2023-07-31T05:02:25;28.10;58.10
81895;DHT22;71358;45.642;13.758;2023-07-31T05:05:10;28.20;57.30
81895;DHT22;71358;45.642;13.758;2023-07-31T05:07:54;28.20;57.30
81895;DHT22;71358;45.642;13.758;2023-07-31T05:10:39;28.20;57.50
81895;DHT22;71358;45.642;13.758;2023-07-31T05:13:24;28.20;57.50
81895;DHT22;71358;45.642;13.758;2023-07-31T05:16:08;28.10;57.50
81895;DHT22;71358;45.642;13.758;2023-07-31T05:18:53;28.10;57.40
81895;DHT22;71358;45.642;13.758;2023-07-31T05:21:37;28.10;57.30
81895;DHT22;71358;45.642;13.758;2023-07-31T05:24:22;28.10;57.30
81895;DHT22;71358;45.642;13.758;2023-07-31T05:27:07;28.10;57.10
81895;DHT22;71358;45.642;13.758;2023-07-31T05:29:51;28.10;57.00
81895;DHT22;71358;45.642;13.758;2023-07-31T05:32:36;28.10;56.70
81895;DHT22;71358;45.642;13.758;2023-07-31T05:35:20;28.10;56.70
81895;DHT22;71358;45.642;13.758;2023-07-31T05:38:05;28.10;56.50
81895;DHT22;71358;45.642;13.758;2023-07-31T05:40:49;28.10;56.10
81895;DHT22;71358;45.642;13.758;2023-07-31T05:43:34;28.10;55.90
81895;DHT22;71358;45.642;13.758;2023-07-31T05:46:18;28.10;55.60
81895;DHT22;71358;45.642;13.758;2023-07-31T05:49:03;28.10;55.30
81895;DHT22;71358;45.642;13.758;2023-07-31T05:51:47;28.10;55.20
81895;DHT22;71358;45.642;13.758;2023-07-31T05:54:32;28.10;55.20
81895;DHT22;71358;45.642;13.758;2023-07-31T05:57:17;28.10;55.00
81895;DHT22;71358;45.642;13.758;2023-07-31T06:00:02;28.00;54.90
81895;DHT22;71358;45.642;13.758;2023-07-31T06:02:49;28.00;55.10
81895;DHT22;71358;45.642;13.758;2023-07-31T06:05:34;28.00;55.00
81895;DHT22;71358;45.642;13.758;2023-07-31T06:08:18;28.00;54.40
81895;DHT22;71358;45.642;13.758;2023-07-31T06:11:03;28.00;54.00
81895;DHT22;71358;45.642;13.758;2023-07-31T06:13:47;28.00;53.80
81895;DHT22;71358;45.642;13.758;2023-07-31T06:16:32;28.00;53.50
81895;DHT22;71358;45.642;13.758;2023-07-31T06:19:17;28.10;53.50
81895;DHT22;71358;45.642;13.758;2023-07-31T06:22:01;28.00;53.00
81895;DHT22;71358;45.642;13.758;2023-07-31T06:24:46;28.10;52.80
81895;DHT22;71358;45.642;13.758;2023-07-31T06:27:31;28.00;52.70
81895;DHT22;71358;45.642;13.758;2023-07-31T06:30:15;28.00;52.70
81895;DHT22;71358;45.642;13.758;2023-07-31T06:33:00;28.00;53.20
81895;DHT22;71358;45.642;13.758;2023-07-31T06:35:44;28.00;52.70
81895;DHT22;71358;45.642;13.758;2023-07-31T06:38:30;28.00;52.90
81895;DHT22;71358;45.642;13.758;2023-07-31T06:41:14;28.00;52.90
81895;DHT22;71358;45.642;13.758;2023-07-31T06:43:59;28.00;53.00
81895;DHT22;71358;45.642;13.758;2023-07-31T06:46:43;28.00;53.10
81895;DHT22;71358;45.642;13.758;2023-07-31T06:49:28;28.00;53.20
81895;DHT22;71358;45.642;13.758;2023-07-31T06:52:13;28.00;53.30
81895;DHT22;71358;45.642;13.758;2023-07-31T06:55:26;28.00;53.40
81895;DHT22;71358;45.642;13.758;2023-07-31T06:58:09;28.00;53.50
81895;DHT22;71358;45.642;13.758;2023-07-31T07:00:54;27.90;53.40
81895;DHT22;71358;45.642;13.758;2023-07-31T07:03:38;28.00;53.50
81895;DHT22;71358;45.642;13.758;2023-07-31T07:06:22;28.00;53.70
81895;DHT22;71358;45.642;13.758;2023-07-31T07:09:07;27.90;53.60
81895;DHT22;71358;45.642;13.758;2023-07-31T07:11:52;27.90;53.80
81895;DHT22;71358;45.642;13.758;2023-07-31T07:14:36;28.00;54.10
81895;DHT22;71358;45.642;13.758;2023-07-31T07:17:21;28.00;54.90
81895;DHT22;71358;45.642;13.758;2023-07-31T07:20:06;28.00;54.40
81895;DHT22;71358;45.642;13.758;2023-07-31T07:22:52;28.00;55.10
81895;DHT22;71358;45.642;13.758;2023-07-31T07:25:38;27.90;54.50
81895;DHT22;71358;45.642;13.758;2023-07-31T07:28:22;27.90;54.60
81895;DHT22;71358;45.642;13.758;2023-07-31T07:31:07;28.00;54.70
81895;DHT22;71358;45.642;13.758;2023-07-31T07:33:51;28.00;54.70
81895;DHT22;71358;45.642;13.758;2023-07-31T07:36:36;28.00;54.50
81895;DHT22;71358;45.642;13.758;2023-07-31T07:39:21;28.00;54.60
81895;DHT22;71358;45.642;13.758;2023-07-31T07:42:06;28.00;54.50
81895;DHT22;71358;45.642;13.758;2023-07-31T07:44:51;28.00;54.60
81895;DHT22;71358;45.642;13.758;2023-07-31T07:47:35;28.00;54.50
81895;DHT22;71358;45.642;13.758;2023-07-31T07:50:20;28.00;54.50
81895;DHT22;71358;45.642;13.758;2023-07-31T07:53:05;28.00;54.50
81895;DHT22;71358;45.642;13.758;2023-07-31T07:55:50;28.00;54.40
81895;DHT22;71358;45.642;13.758;2023-07-31T07:58:34;27.90;54.50
81895;DHT22;71358;45.642;13.758;2023-07-31T08:01:19;28.00;54.70
81895;DHT22;71358;45.642;13.758;2023-07-31T08:04:03;28.00;54.80
81895;DHT22;71358;45.642;13.758;2023-07-31T08:06:48;28.00;54.90
81895;DHT22;71358;45.642;13.758;2023-07-31T08:09:32;28.00;54.90
81895;DHT22;71358;45.642;13.758;2023-07-31T08:12:17;28.00;55.00
81895;DHT22;71358;45.642;13.758;2023-07-31T08:15:02;28.00;55.00
81895;DHT22;71358;45.642;13.758;2023-07-31T08:17:46;28.00;55.20
81895;DHT22;71358;45.642;13.758;2023-07-31T08:20:31;28.00;55.20
81895;DHT22;71358;45.642;13.758;2023-07-31T08:23:15;28.00;55.30
81895;DHT22;71358;45.642;13.758;2023-07-31T08:26:00;28.00;55.40
81895;DHT22;71358;45.642;13.758;2023-07-31T08:28:44;28.00;55.40
81895;DHT22;71358;45.642;13.758;2023-07-31T08:31:29;28.00;56.10
81895;DHT22;71358;45.642;13.758;2023-07-31T08:34:13;28.00;55.40
81895;DHT22;71358;45.642;13.758;2023-07-31T08:36:58;28.10;55.50
81895;DHT22;71358;45.642;13.758;2023-07-31T08:39:42;28.00;55.40
81895;DHT22;71358;45.642;13.758;2023-07-31T08:42:27;28.10;55.50
81895;DHT22;71358;45.642;13.758;2023-07-31T08:45:16;28.10;55.40
81895;DHT22;71358;45.642;13.758;2023-07-31T08:48:01;28.10;55.20
81895;DHT22;71358;45.642;13.758;2023-07-31T08:50:46;28.00;54.90
81895;DHT22;71358;45.642;13.758;2023-07-31T08:53:30;28.10;55.40
81895;DHT22;71358;45.642;13.758;2023-07-31T08:56:15;28.10;54.50
81895;DHT22;71358;45.642;13.758;2023-07-31T08:59:02;28.10;54.30
81895;DHT22;71358;45.642;13.758;2023-07-31T09:01:50;28.20;54.00
81895;DHT22;71358;45.642;13.758;2023-07-31T09:04:37;28.30;53.70
81895;DHT22;71358;45.642;13.758;2023-07-31T09:07:22;28.30;53.30
81895;DHT22;71358;45.642;13.758;2023-07-31T09:10:06;28.40;53.20
81895;DHT22;71358;45.642;13.758;2023-07-31T09:12:51;28.40;53.10
81895;DHT22;71358;45.642;13.758;2023-07-31T09:15:37;28.50;52.60
81895;DHT22;71358;45.642;13.758;2023-07-31T09:18:24;28.50;52.90
81895;DHT22;71358;45.642;13.758;2023-07-31T09:21:09;28.50;53.10
81895;DHT22;71358;45.642;13.758;2023-07-31T09:23:54;28.50;53.00
81895;DHT22;71358;45.642;13.758;2023-07-31T09:26:38;28.50;53.20
81895;DHT22;71358;45.642;13.758;2023-07-31T09:29:23;28.50;53.50
81895;DHT22;71358;45.642;13.758;2023-07-31T09:32:16;28.50;53.70
81895;DHT22;71358;45.642;13.758;2023-07-31T09:35:01;28.50;53.90
81895;DHT22;71358;45.642;13.758;2023-07-31T09:37:49;28.50;54.00
81895;DHT22;71358;45.642;13.758;2023-07-31T09:40:36;28.50;54.20
81895;DHT22;71358;45.642;13.758;2023-07-31T09:43:22;28.50;53.80
81895;DHT22;71358;45.642;13.758;2023-07-31T09:46:13;28.50;53.80
81895;DHT22;71358;45.642;13.758;2023-07-31T09:51:55;28.50;53.70
81895;DHT22;71358;45.642;13.758;2023-07-31T09:54:40;28.60;53.30
81895;DHT22;71358;45.642;13.758;2023-07-31T09:57:24;28.50;53.00
81895;DHT22;71358;45.642;13.758;2023-07-31T10:00:10;28.50;53.00
81895;DHT22;71358;45.642;13.758;2023-07-31T10:03:00;28.50;53.50
81895;DHT22;71358;45.642;13.758;2023-07-31T10:05:50;28.50;53.70
81895;DHT22;71358;45.642;13.758;2023-07-31T10:08:36;28.40;53.70
81895;DHT22;71358;45.642;13.758;2023-07-31T10:11:22;28.40;53.70
81895;DHT22;71358;45.642;13.758;2023-07-31T10:14:09;28.40;53.80
81895;DHT22;71358;45.642;13.758;2023-07-31T10:16:54;28.40;53.80
81895;DHT22;71358;45.642;13.758;2023-07-31T10:19:39;28.50;53.80
81895;DHT22;71358;45.642;13.758;2023-07-31T10:22:24;28.50;53.90
81895;DHT22;71358;45.642;13.758;2023-07-31T10:25:09;28.50;54.10
81895;DHT22;71358;45.642;13.758;2023-07-31T10:27:54;28.50;54.40
81895;DHT22;71358;45.642;13.758;2023-07-31T10:30:39;28.60;54.90
81895;DHT22;71358;45.642;13.758;2023-07-31T10:33:24;28.60;55.30
81895;DHT22;71358;45.642;13.758;2023-07-31T10:36:19;28.60;55.30
81895;DHT22;71358;45.642;13.758;2023-07-31T10:39:04;28.60;56.20
81895;DHT22;71358;45.642;13.758;2023-07-31T10:42:13;28.70;56.50
81895;DHT22;71358;45.642;13.758;2023-07-31T10:44:58;28.70;56.10
81895;DHT22;71358;45.642;13.758;2023-07-31T10:47:45;28.70;55.40
81895;DHT22;71358;45.642;13.758;2023-07-31T10:50:31;28.70;54.70
81895;DHT22;71358;45.642;13.758;2023-07-31T10:53:26;28.70;54.70
81895;DHT22;71358;45.642;13.758;2023-07-31T10:56:10;28.70;55.60
81895;DHT22;71358;45.642;13.758;2023-07-31T10:59:02;28.70;56.10
81895;DHT22;71358;45.642;13.758;2023-07-31T11:01:55;28.80;57.40
81895;DHT22;71358;45.642;13.758;2023-07-31T11:05:06;28.80;58.90
81895;DHT22;71358;45.642;13.758;2023-07-31T11:07:50;28.90;58.80
81895;DHT22;71358;45.642;13.758;2023-07-31T11:10:35;28.80;59.00
81895;DHT22;71358;45.642;13.758;2023-07-31T11:13:19;28.90;59.40
81895;DHT22;71358;45.642;13.758;2023-07-31T11:16:04;28.80;59.50
81895;DHT22;71358;45.642;13.758;2023-07-31T11:18:49;28.90;60.00
81895;DHT22;71358;45.642;13.758;2023-07-31T11:21:35;28.90;59.30
81895;DHT22;71358;45.642;13.758;2023-07-31T11:24:20;28.90;58.40
81895;DHT22;71358;45.642;13.758;2023-07-31T11:27:07;28.90;57.70
81895;DHT22;71358;45.642;13.758;2023-07-31T11:29:53;28.90;57.10
81895;DHT22;71358;45.642;13.758;2023-07-31T11:32:37;28.90;56.60
81895;DHT22;71358;45.642;13.758;2023-07-31T11:35:22;28.90;56.60
81895;DHT22;71358;45.642;13.758;2023-07-31T11:38:06;28.90;57.10
81895;DHT22;71358;45.642;13.758;2023-07-31T11:41:03;28.90;57.60
81895;DHT22;71358;45.642;13.758;2023-07-31T11:43:47;28.90;59.00
81895;DHT22;71358;45.642;13.758;2023-07-31T11:46:32;28.90;58.70
81895;DHT22;71358;45.642;13.758;2023-07-31T11:49:17;28.90;58.70
81895;DHT22;71358;45.642;13.758;2023-07-31T11:52:02;28.90;58.70
81895;DHT22;71358;45.642;13.758;2023-07-31T11:54:46;28.90;59.10
81895;DHT22;71358;45.642;13.758;2023-07-31T11:57:31;28.90;60.50
81895;DHT22;71358;45.642;13.758;2023-07-31T12:00:16;28.90;60.50
81895;DHT22;71358;45.642;13.758;2023-07-31T12:03:00;28.90;60.60
81895;DHT22;71358;45.642;13.758;2023-07-31T12:05:47;28.90;60.90
81895;DHT22;71358;45.642;13.758;2023-07-31T12:08:32;28.80;61.00
81895;DHT22;71358;45.642;13.758;2023-07-31T12:11:17;28.80;61.40
81895;DHT22;71358;45.642;13.758;2023-07-31T12:14:04;28.90;61.60
81895;DHT22;71358;45.642;13.758;2023-07-31T12:16:56;28.90;61.70
81895;DHT22;71358;45.642;13.758;2023-07-31T12:19:41;28.90;61.60
81895;DHT22;71358;45.642;13.758;2023-07-31T12:22:26;28.80;61.60
81895;DHT22;71358;45.642;13.758;2023-07-31T12:25:15;28.90;61.80
81895;DHT22;71358;45.642;13.758;2023-07-31T12:28:06;28.90;61.60
81895;DHT22;71358;45.642;13.758;2023-07-31T12:31:00;28.90;61.50
81895;DHT22;71358;45.642;13.758;2023-07-31T12:33:46;28.90;61.20
81895;DHT22;71358;45.642;13.758;2023-07-31T12:36:30;28.90;61.20
81895;DHT22;71358;45.642;13.758;2023-07-31T12:39:19;28.90;61.20
81895;DHT22;71358;45.642;13.758;2023-07-31T12:42:05;28.90;60.70
81895;DHT22;71358;45.642;13.758;2023-07-31T12:44:49;28.90;59.80
81895;DHT22;71358;45.642;13.758;2023-07-31T12:47:34;28.80;59.90
81895;DHT22;71358;45.642;13.758;2023-07-31T12:50:18;28.90;60.40
81895;DHT22;71358;45.642;13.758;2023-07-31T12:53:03;28.90;59.90
81895;DHT22;71358;45.642;13.758;2023-07-31T12:55:47;28.90;59.80
81895;DHT22;71358;45.642;13.758;2023-07-31T12:58:32;28.80;59.20
81895;DHT22;71358;45.642;13.758;2023-07-31T13:01:17;28.80;59.30
81895;DHT22;71358;45.642;13.758;2023-07-31T13:04:01;28.90;59.30
81895;DHT22;71358;45.642;13.758;2023-07-31T13:06:46;28.90;59.30
81895;DHT22;71358;45.642;13.758;2023-07-31T13:09:30;28.90;59.10
81895;DHT22;71358;45.642;13.758;2023-07-31T13:12:15;28.90;58.50
81895;DHT22;71358;45.642;13.758;2023-07-31T13:14:59;28.90;57.60
81895;DHT22;71358;45.642;13.758;2023-07-31T13:17:45;28.90;56.50
81895;DHT22;71358;45.642;13.758;2023-07-31T13:20:29;28.90;56.30
81895;DHT22;71358;45.642;13.758;2023-07-31T13:23:14;28.90;56.40
81895;DHT22;71358;45.642;13.758;2023-07-31T13:25:59;28.90;56.30
81895;DHT22;71358;45.642;13.758;2023-07-31T13:28:43;28.80;56.30
81895;DHT22;71358;45.642;13.758;2023-07-31T13:31:28;28.90;56.30
81895;DHT22;71358;45.642;13.758;2023-07-31T13:34:12;28.80;56.20
81895;DHT22;71358;45.642;13.758;2023-07-31T13:36:57;28.80;56.20
81895;DHT22;71358;45.642;13.758;2023-07-31T13:39:42;28.80;56.10
81895;DHT22;71358;45.642;13.758;2023-07-31T13:42:27;28.80;56.30
81895;DHT22;71358;45.642;13.758;2023-07-31T13:45:12;28.80;56.40
81895;DHT22;71358;45.642;13.758;2023-07-31T13:47:57;28.80;56.60
81895;DHT22;71358;45.642;13.758;2023-07-31T13:50:41;28.80;56.70
81895;DHT22;71358;45.642;13.758;2023-07-31T13:53:26;28.80;56.80
81895;DHT22;71358;45.642;13.758;2023-07-31T13:56:10;28.80;57.30
81895;DHT22;71358;45.642;13.758;2023-07-31T13:58:55;28.80;56.50
81895;DHT22;71358;45.642;13.758;2023-07-31T14:01:40;28.80;56.50
81895;DHT22;71358;45.642;13.758;2023-07-31T14:04:24;28.80;56.20
81895;DHT22;71358;45.642;13.758;2023-07-31T14:07:09;28.80;56.00
81895;DHT22;71358;45.642;13.758;2023-07-31T14:09:54;28.80;56.10
81895;DHT22;71358;45.642;13.758;2023-07-31T14:12:38;28.80;56.10
81895;DHT22;71358;45.642;13.758;2023-07-31T14:15:23;28.80;55.70
81895;DHT22;71358;45.642;13.758;2023-07-31T14:18:07;28.80;55.70
81895;DHT22;71358;45.642;13.758;2023-07-31T14:20:52;28.80;55.50
81895;DHT22;71358;45.642;13.758;2023-07-31T14:23:36;28.80;55.50
81895;DHT22;71358;45.642;13.758;2023-07-31T14:26:21;28.80;55.40
81895;DHT22;71358;45.642;13.758;2023-07-31T14:29:05;28.80;55.30
81895;DHT22;71358;45.642;13.758;2023-07-31T14:31:50;28.80;55.30
81895;DHT22;71358;45.642;13.758;2023-07-31T14:34:35;28.70;54.90
81895;DHT22;71358;45.642;13.758;2023-07-31T14:37:19;28.70;55.00
81895;DHT22;71358;45.642;13.758;2023-07-31T14:40:04;28.70;55.00
81895;DHT22;71358;45.642;13.758;2023-07-31T14:42:49;28.70;54.80
81895;DHT22;71358;45.642;13.758;2023-07-31T14:45:33;28.70;54.80
81895;DHT22;71358;45.642;13.758;2023-07-31T14:48:18;28.70;54.70
81895;DHT22;71358;45.642;13.758;2023-07-31T14:51:03;28.70;54.90
81895;DHT22;71358;45.642;13.758;2023-07-31T14:53:47;28.70;54.90
81895;DHT22;71358;45.642;13.758;2023-07-31T14:56:32;28.70;55.10
81895;DHT22;71358;45.642;13.758;2023-07-31T14:59:16;28.70;55.40
81895;DHT22;71358;45.642;13.758;2023-07-31T15:02:01;28.70;55.80
81895;DHT22;71358;45.642;13.758;2023-07-31T15:04:46;28.70;56.30
81895;DHT22;71358;45.642;13.758;2023-07-31T15:07:31;28.70;56.80
81895;DHT22;71358;45.642;13.758;2023-07-31T15:10:16;28.70;57.30
81895;DHT22;71358;45.642;13.758;2023-07-31T15:13:00;28.70;57.70
81895;DHT22;71358;45.642;13.758;2023-07-31T15:15:45;28.80;58.30
81895;DHT22;71358;45.642;13.758;2023-07-31T15:18:29;28.70;58.40
81895;DHT22;71358;45.642;13.758;2023-07-31T15:21:14;28.70;58.70
81895;DHT22;71358;45.642;13.758;2023-07-31T15:23:59;28.80;59.10
81895;DHT22;71358;45.642;13.758;2023-07-31T15:26:43;28.70;59.10
81895;DHT22;71358;45.642;13.758;2023-07-31T15:29:29;28.70;59.40
81895;DHT22;71358;45.642;13.758;2023-07-31T15:32:13;28.80;59.60
81895;DHT22;71358;45.642;13.758;2023-07-31T15:34:58;28.70;59.50
81895;DHT22;71358;45.642;13.758;2023-07-31T15:37:43;28.70;59.40
81895;DHT22;71358;45.642;13.758;2023-07-31T15:40:27;28.70;59.30
81895;DHT22;71358;45.642;13.758;2023-07-31T15:43:12;28.70;59.20
81895;DHT22;71358;45.642;13.758;2023-07-31T15:45:56;28.70;59.20
81895;DHT22;71358;45.642;13.758;2023-07-31T15:48:41;28.70;59.10
81895;DHT22;71358;45.642;13.758;2023-07-31T15:51:26;28.70;59.20
81895;DHT22;71358;45.642;13.758;2023-07-31T15:54:10;28.80;59.30
81895;DHT22;71358;45.642;13.758;2023-07-31T15:56:55;28.70;59.20
81895;DHT22;71358;45.642;13.758;2023-07-31T15:59:40;28.70;59.30
81895;DHT22;71358;45.642;13.758;2023-07-31T16:02:24;28.70;59.60
81895;DHT22;71358;45.642;13.758;2023-07-31T16:05:09;28.70;59.70
81895;DHT22;71358;45.642;13.758;2023-07-31T16:07:53;28.70;59.80
81895;DHT22;71358;45.642;13.758;2023-07-31T16:10:38;28.70;59.70
81895;DHT22;71358;45.642;13.758;2023-07-31T16:13:22;28.70;59.60
81895;DHT22;71358;45.642;13.758;2023-07-31T16:16:07;28.70;59.60
81895;DHT22;71358;45.642;13.758;2023-07-31T16:18:51;28.70;59.80
81895;DHT22;71358;45.642;13.758;2023-07-31T16:21:36;28.70;59.90
81895;DHT22;71358;45.642;13.758;2023-07-31T16:24:21;28.70;59.80
81895;DHT22;71358;45.642;13.758;2023-07-31T16:27:05;28.70;59.80
81895;DHT22;71358;45.642;13.758;2023-07-31T16:29:50;28.70;59.70
81895;DHT22;71358;45.642;13.758;2023-07-31T16:32:35;28.70;59.80
81895;DHT22;71358;45.642;13.758;2023-07-31T16:35:19;28.70;59.90
81895;DHT22;71358;45.642;13.758;2023-07-31T16:38:04;28.70;59.90
81895;DHT22;71358;45.642;13.758;2023-07-31T16:40:48;28.70;59.90
81895;DHT22;71358;45.642;13.758;2023-07-31T16:43:33;28.70;59.90
81895;DHT22;71358;45.642;13.758;2023-07-31T16:46:18;28.70;59.80
81895;DHT22;71358;45.642;13.758;2023-07-31T16:49:02;28.70;59.60
81895;DHT22;71358;45.642;13.758;2023-07-31T16:51:48;28.70;59.60
81895;DHT22;71358;45.642;13.758;2023-07-31T16:54:33;28.70;59.60
81895;DHT22;71358;45.642;13.758;2023-07-31T16:57:18;28.70;59.60
81895;DHT22;71358;45.642;13.758;2023-07-31T17:00:04;28.70;59.90
81895;DHT22;71358;45.642;13.758;2023-07-31T17:02:49;28.70;60.00
81895;DHT22;71358;45.642;13.758;2023-07-31T17:05:33;28.70;60.00
81895;DHT22;71358;45.642;13.758;2023-07-31T17:08:18;28.70;60.20
81895;DHT22;71358;45.642;13.758;2023-07-31T17:11:03;28.70;60.30
81895;DHT22;71358;45.642;13.758;2023-07-31T17:13:47;28.70;60.50
81895;DHT22;71358;45.642;13.758;2023-07-31T17:16:35;28.70;60.50